sensor_id;sensor_type;location;lat;lon;timestamp;P1;durP1;ratioP1;P2;durP2;ratioP2
79574;SDS011;69044;48.198;11.468;2023-11-19T00:01:50;2.30;;;1.48;;
79574;SDS011;69044;48.198;11.468;2023-11-19T00:04:17;2.30;;;1.48;;
79574;SDS011;69044;48.198;11.468;2023-11-19T00:06:44;2.60;;;1.50;;
79574;SDS011;69044;48.198;11.468;2023-11-19T00:09:11;2.78;;;1.73;;
79574;SDS011;69044;48.198;11.468;2023-11-19T00:11:39;2.63;;;1.90;;
79574;SDS011;69044;48.198;11.468;2023-11-19T00:14:06;2.17;;;1.48;;
79574;SDS011;69044;48.198;11.468;2023-11-19T00:16:35;3.38;;;1.80;;
79574;SDS011;69044;48.198;11.468;2023-11-19T00:19:02;2.47;;;1.67;;
79574;SDS011;69044;48.198;11.468;2023-11-19T00:21:31;3.05;;;1.67;;
79574;SDS011;69044;48.198;11.468;2023-11-19T00:23:59;2.70;;;1.60;;
79574;SDS011;69044;48.198;11.468;2023-11-19T00:26:26;3.35;;;1.63;;
79574;SDS011;69044;48.198;11.468;2023-11-19T00:28:54;2.60;;;1.50;;
79574;SDS011;69044;48.198;11.468;2023-11-19T00:31:21;3.05;;;1.70;;
79574;SDS011;69044;48.198;11.468;2023-11-19T00:33:50;1.98;;;1.50;;
79574;SDS011;69044;48.198;11.468;2023-11-19T00:36:17;2.45;;;1.50;;
79574;SDS011;69044;48.198;11.468;2023-11-19T00:38:45;4.38;;;1.50;;
79574;SDS011;69044;48.198;11.468;2023-11-19T00:41:12;3.15;;;1.85;;
79574;SDS011;69044;48.198;11.468;2023-11-19T00:43:41;3.55;;;1.70;;
79574;SDS011;69044;48.198;11.468;2023-11-19T00:46:09;3.58;;;1.75;;
79574;SDS011;69044;48.198;11.468;2023-11-19T00:48:36;3.00;;;1.52;;
79574;SDS011;69044;48.198;11.468;2023-11-19T00:51:05;2.88;;;1.73;;
79574;SDS011;69044;48.198;11.468;2023-11-19T00:53:33;2.20;;;1.38;;
79574;SDS011;69044;48.198;11.468;2023-11-19T00:56:00;1.95;;;1.40;;
79574;SDS011;69044;48.198;11.468;2023-11-19T00:58:28;3.97;;;1.60;;
79574;SDS011;69044;48.198;11.468;2023-11-19T01:00:55;2.10;;;1.38;;
79574;SDS011;69044;48.198;11.468;2023-11-19T01:03:23;2.40;;;1.30;;
79574;SDS011;69044;48.198;11.468;2023-11-19T01:05:50;3.95;;;1.45;;
79574;SDS011;69044;48.198;11.468;2023-11-19T01:08:19;2.15;;;1.30;;
79574;SDS011;69044;48.198;11.468;2023-11-19T01:10:47;2.47;;;1.40;;
79574;SDS011;69044;48.198;11.468;2023-11-19T01:13:14;2.70;;;1.40;;
79574;SDS011;69044;48.198;11.468;2023-11-19T01:15:42;3.75;;;1.58;;
79574;SDS011;69044;48.198;11.468;2023-11-19T01:18:09;2.88;;;1.38;;
79574;SDS011;69044;48.198;11.468;2023-11-19T01:20:36;2.97;;;1.77;;
79574;SDS011;69044;48.198;11.468;2023-11-19T01:23:03;2.42;;;1.35;;
79574;SDS011;69044;48.198;11.468;2023-11-19T01:25:32;2.25;;;1.40;;
79574;SDS011;69044;48.198;11.468;2023-11-19T01:30:28;2.80;;;1.25;;
79574;SDS011;69044;48.198;11.468;2023-11-19T01:32:55;2.50;;;1.45;;
79574;SDS011;69044;48.198;11.468;2023-11-19T01:35:22;2.47;;;1.30;;
79574;SDS011;69044;48.198;11.468;2023-11-19T01:37:49;2.50;;;1.60;;
79574;SDS011;69044;48.198;11.468;2023-11-19T01:40:19;2.47;;;1.60;;
79574;SDS011;69044;48.198;11.468;2023-11-19T01:42:48;7.55;;;1.83;;
79574;SDS011;69044;48.198;11.468;2023-11-19T01:45:21;1.52;;;1.20;;
79574;SDS011;69044;48.198;11.468;2023-11-19T01:47:50;2.08;;;1.27;;
79574;SDS011;69044;48.198;11.468;2023-11-19T01:50:17;2.08;;;1.40;;
79574;SDS011;69044;48.198;11.468;2023-11-19T01:52:45;1.90;;;1.33;;
79574;SDS011;69044;48.198;11.468;2023-11-19T01:55:13;1.75;;;1.30;;
79574;SDS011;69044;48.198;11.468;2023-11-19T01:57:40;1.83;;;1.33;;
79574;SDS011;69044;48.198;11.468;2023-11-19T02:00:09;2.72;;;1.40;;
79574;SDS011;69044;48.198;11.468;2023-11-19T02:02:42;3.63;;;1.30;;
79574;SDS011;69044;48.198;11.468;2023-11-19T02:05:10;2.08;;;1.45;;
79574;SDS011;69044;48.198;11.468;2023-11-19T02:07:38;2.20;;;1.23;;
79574;SDS011;69044;48.198;11.468;2023-11-19T02:10:06;3.13;;;1.40;;
79574;SDS011;69044;48.198;11.468;2023-11-19T02:12:38;1.80;;;1.30;;
79574;SDS011;69044;48.198;11.468;2023-11-19T02:15:10;2.17;;;1.45;;
79574;SDS011;69044;48.198;11.468;2023-11-19T02:17:37;1.75;;;1.30;;
79574;SDS011;69044;48.198;11.468;2023-11-19T02:20:05;2.58;;;1.20;;
79574;SDS011;69044;48.198;11.468;2023-11-19T02:22:35;1.58;;;1.17;;
79574;SDS011;69044;48.198;11.468;2023-11-19T02:25:04;2.13;;;1.30;;
79574;SDS011;69044;48.198;11.468;2023-11-19T02:27:40;1.75;;;1.20;;
79574;SDS011;69044;48.198;11.468;2023-11-19T02:30:11;3.05;;;1.30;;
79574;SDS011;69044;48.198;11.468;2023-11-19T02:32:40;2.42;;;1.35;;
79574;SDS011;69044;48.198;11.468;2023-11-19T02:35:08;2.08;;;1.10;;
79574;SDS011;69044;48.198;11.468;2023-11-19T02:37:35;2.83;;;1.10;;
79574;SDS011;69044;48.198;11.468;2023-11-19T02:40:02;1.95;;;1.10;;
79574;SDS011;69044;48.198;11.468;2023-11-19T02:42:31;2.38;;;1.30;;
79574;SDS011;69044;48.198;11.468;2023-11-19T02:45:00;1.77;;;1.20;;
79574;SDS011;69044;48.198;11.468;2023-11-19T02:47:27;1.15;;;0.98;;
79574;SDS011;69044;48.198;11.468;2023-11-19T02:49:56;1.30;;;0.93;;
79574;SDS011;69044;48.198;11.468;2023-11-19T02:52:23;1.38;;;0.93;;
79574;SDS011;69044;48.198;11.468;2023-11-19T02:54:50;1.83;;;1.00;;
79574;SDS011;69044;48.198;11.468;2023-11-19T02:57:18;1.38;;;0.90;;
79574;SDS011;69044;48.198;11.468;2023-11-19T02:59:46;1.48;;;1.10;;
79574;SDS011;69044;48.198;11.468;2023-11-19T03:02:15;1.00;;;0.90;;
79574;SDS011;69044;48.198;11.468;2023-11-19T03:04:43;1.95;;;1.10;;
79574;SDS011;69044;48.198;11.468;2023-11-19T03:07:11;1.90;;;1.00;;
79574;SDS011;69044;48.198;11.468;2023-11-19T03:09:39;1.13;;;0.98;;
79574;SDS011;69044;48.198;11.468;2023-11-19T03:12:07;1.15;;;1.05;;
79574;SDS011;69044;48.198;11.468;2023-11-19T03:14:34;1.23;;;0.90;;
79574;SDS011;69044;48.198;11.468;2023-11-19T03:17:01;1.42;;;1.00;;
79574;SDS011;69044;48.198;11.468;2023-11-19T03:19:32;0.63;;;0.63;;
79574;SDS011;69044;48.198;11.468;2023-11-19T03:22:01;1.48;;;0.82;;
79574;SDS011;69044;48.198;11.468;2023-11-19T03:24:28;1.05;;;0.80;;
79574;SDS011;69044;48.198;11.468;2023-11-19T03:26:55;1.80;;;1.00;;
79574;SDS011;69044;48.198;11.468;2023-11-19T03:29:22;1.08;;;0.88;;
79574;SDS011;69044;48.198;11.468;2023-11-19T03:31:50;1.00;;;0.75;;
79574;SDS011;69044;48.198;11.468;2023-11-19T03:34:17;0.93;;;0.80;;
79574;SDS011;69044;48.198;11.468;2023-11-19T03:36:46;1.08;;;0.73;;
79574;SDS011;69044;48.198;11.468;2023-11-19T03:39:13;0.63;;;0.63;;
79574;SDS011;69044;48.198;11.468;2023-11-19T03:41:40;0.77;;;0.57;;
79574;SDS011;69044;48.198;11.468;2023-11-19T03:44:07;0.90;;;0.80;;
79574;SDS011;69044;48.198;11.468;2023-11-19T03:46:34;1.30;;;0.82;;
79574;SDS011;69044;48.198;11.468;2023-11-19T03:49:01;1.48;;;0.90;;
79574;SDS011;69044;48.198;11.468;2023-11-19T03:51:30;0.70;;;0.68;;
79574;SDS011;69044;48.198;11.468;2023-11-19T03:53:58;0.90;;;0.68;;
79574;SDS011;69044;48.198;11.468;2023-11-19T03:56:25;0.93;;;0.73;;
79574;SDS011;69044;48.198;11.468;2023-11-19T03:58:53;1.42;;;0.88;;
79574;SDS011;69044;48.198;11.468;2023-11-19T04:01:20;0.80;;;0.80;;
79574;SDS011;69044;48.198;11.468;2023-11-19T04:03:47;0.90;;;0.80;;
79574;SDS011;69044;48.198;11.468;2023-11-19T04:06:14;0.88;;;0.77;;
79574;SDS011;69044;48.198;11.468;2023-11-19T04:08:41;1.33;;;0.90;;
79574;SDS011;69044;48.198;11.468;2023-11-19T04:11:10;0.70;;;0.70;;
79574;SDS011;69044;48.198;11.468;2023-11-19T04:13:37;0.70;;;0.70;;
79574;SDS011;69044;48.198;11.468;2023-11-19T04:16:04;1.05;;;0.70;;
79574;SDS011;69044;48.198;11.468;2023-11-19T04:18:32;0.90;;;0.80;;
79574;SDS011;69044;48.198;11.468;2023-11-19T04:20:59;1.10;;;0.90;;
79574;SDS011;69044;48.198;11.468;2023-11-19T04:23:26;1.10;;;0.90;;
79574;SDS011;69044;48.198;11.468;2023-11-19T04:25:53;1.27;;;0.80;;
79574;SDS011;69044;48.198;11.468;2023-11-19T04:28:23;1.40;;;0.90;;
79574;SDS011;69044;48.198;11.468;2023-11-19T04:30:52;1.25;;;0.82;;
79574;SDS011;69044;48.198;11.468;2023-11-19T04:33:19;1.35;;;0.90;;
79574;SDS011;69044;48.198;11.468;2023-11-19T04:35:47;0.98;;;0.85;;
79574;SDS011;69044;48.198;11.468;2023-11-19T04:38:14;1.05;;;0.90;;
79574;SDS011;69044;48.198;11.468;2023-11-19T04:40:41;0.70;;;0.70;;
79574;SDS011;69044;48.198;11.468;2023-11-19T04:43:08;0.65;;;0.65;;
79574;SDS011;69044;48.198;11.468;2023-11-19T04:45:37;2.22;;;1.00;;
79574;SDS011;69044;48.198;11.468;2023-11-19T04:48:05;1.08;;;0.90;;
79574;SDS011;69044;48.198;11.468;2023-11-19T04:50:32;1.20;;;0.90;;
79574;SDS011;69044;48.198;11.468;2023-11-19T04:52:59;1.33;;;0.90;;
79574;SDS011;69044;48.198;11.468;2023-11-19T04:55:28;1.55;;;0.90;;
79574;SDS011;69044;48.198;11.468;2023-11-19T04:57:55;1.52;;;1.00;;
79574;SDS011;69044;48.198;11.468;2023-11-19T05:00:23;1.02;;;0.93;;
79574;SDS011;69044;48.198;11.468;2023-11-19T05:02:51;1.25;;;0.82;;
79574;SDS011;69044;48.198;11.468;2023-11-19T05:05:18;1.30;;;0.95;;
79574;SDS011;69044;48.198;11.468;2023-11-19T05:07:46;1.23;;;1.00;;
79574;SDS011;69044;48.198;11.468;2023-11-19T05:10:13;1.33;;;1.10;;
79574;SDS011;69044;48.198;11.468;2023-11-19T05:12:40;1.60;;;1.00;;
79574;SDS011;69044;48.198;11.468;2023-11-19T05:15:08;1.65;;;1.00;;
79574;SDS011;69044;48.198;11.468;2023-11-19T05:17:37;1.02;;;0.93;;
79574;SDS011;69044;48.198;11.468;2023-11-19T05:20:06;2.13;;;1.45;;
79574;SDS011;69044;48.198;11.468;2023-11-19T05:22:39;3.47;;;1.90;;
79574;SDS011;69044;48.198;11.468;2023-11-19T05:25:06;2.35;;;1.40;;
79574;SDS011;69044;48.198;11.468;2023-11-19T05:27:34;2.53;;;1.33;;
79574;SDS011;69044;48.198;11.468;2023-11-19T05:30:01;4.57;;;2.72;;
79574;SDS011;69044;48.198;11.468;2023-11-19T05:32:29;6.55;;;3.50;;
79574;SDS011;69044;48.198;11.468;2023-11-19T05:34:56;5.30;;;2.72;;
79574;SDS011;69044;48.198;11.468;2023-11-19T05:37:26;3.17;;;1.60;;
79574;SDS011;69044;48.198;11.468;2023-11-19T05:39:53;1.33;;;1.05;;
79574;SDS011;69044;48.198;11.468;2023-11-19T05:42:20;2.70;;;1.52;;
79574;SDS011;69044;48.198;11.468;2023-11-19T05:44:47;3.38;;;2.00;;
79574;SDS011;69044;48.198;11.468;2023-11-19T05:47:14;2.28;;;1.40;;
79574;SDS011;69044;48.198;11.468;2023-11-19T05:49:42;1.30;;;1.15;;
79574;SDS011;69044;48.198;11.468;2023-11-19T05:52:09;1.40;;;1.08;;
79574;SDS011;69044;48.198;11.468;2023-11-19T05:54:39;2.42;;;1.20;;
79574;SDS011;69044;48.198;11.468;2023-11-19T05:57:06;2.22;;;1.25;;
79574;SDS011;69044;48.198;11.468;2023-11-19T05:59:34;1.50;;;0.93;;
79574;SDS011;69044;48.198;11.468;2023-11-19T06:02:02;1.60;;;1.10;;
79574;SDS011;69044;48.198;11.468;2023-11-19T06:04:29;1.35;;;0.93;;
79574;SDS011;69044;48.198;11.468;2023-11-19T06:06:56;1.10;;;0.88;;
79574;SDS011;69044;48.198;11.468;2023-11-19T06:09:23;1.65;;;1.00;;
79574;SDS011;69044;48.198;11.468;2023-11-19T06:11:52;1.60;;;1.10;;
79574;SDS011;69044;48.198;11.468;2023-11-19T06:14:21;1.77;;;1.00;;
79574;SDS011;69044;48.198;11.468;2023-11-19T06:16:50;1.38;;;0.93;;
79574;SDS011;69044;48.198;11.468;2023-11-19T06:19:17;1.40;;;0.98;;
79574;SDS011;69044;48.198;11.468;2023-11-19T06:21:44;0.75;;;0.70;;
79574;SDS011;69044;48.198;11.468;2023-11-19T06:24:11;1.38;;;0.90;;
79574;SDS011;69044;48.198;11.468;2023-11-19T06:26:38;1.55;;;1.00;;
79574;SDS011;69044;48.198;11.468;2023-11-19T06:29:07;1.10;;;0.88;;
79574;SDS011;69044;48.198;11.468;2023-11-19T06:31:34;1.00;;;0.80;;
79574;SDS011;69044;48.198;11.468;2023-11-19T06:34:02;0.93;;;0.68;;
79574;SDS011;69044;48.198;11.468;2023-11-19T06:36:29;1.27;;;0.90;;
79574;SDS011;69044;48.198;11.468;2023-11-19T06:38:57;1.85;;;1.10;;
79574;SDS011;69044;48.198;11.468;2023-11-19T06:41:24;1.55;;;1.00;;
79574;SDS011;69044;48.198;11.468;2023-11-19T06:43:51;2.20;;;1.23;;
79574;SDS011;69044;48.198;11.468;2023-11-19T06:46:20;2.15;;;1.27;;
79574;SDS011;69044;48.198;11.468;2023-11-19T06:51:15;1.67;;;1.05;;
79574;SDS011;69044;48.198;11.468;2023-11-19T06:53:42;2.65;;;1.05;;
79574;SDS011;69044;48.198;11.468;2023-11-19T06:56:17;1.10;;;1.00;;
79574;SDS011;69044;48.198;11.468;2023-11-19T06:58:45;1.42;;;0.90;;
79574;SDS011;69044;48.198;11.468;2023-11-19T07:01:13;1.48;;;1.00;;
79574;SDS011;69044;48.198;11.468;2023-11-19T07:03:42;1.30;;;0.90;;
79574;SDS011;69044;48.198;11.468;2023-11-19T07:06:10;2.60;;;0.93;;
79574;SDS011;69044;48.198;11.468;2023-11-19T07:08:38;1.20;;;0.85;;
79574;SDS011;69044;48.198;11.468;2023-11-19T07:11:05;1.70;;;0.93;;
79574;SDS011;69044;48.198;11.468;2023-11-19T07:13:35;0.80;;;0.80;;
79574;SDS011;69044;48.198;11.468;2023-11-19T07:16:02;1.63;;;0.95;;
79574;SDS011;69044;48.198;11.468;2023-11-19T07:18:30;1.05;;;0.90;;
79574;SDS011;69044;48.198;11.468;2023-11-19T07:20:59;1.08;;;0.90;;
79574;SDS011;69044;48.198;11.468;2023-11-19T07:23:28;1.83;;;1.10;;
79574;SDS011;69044;48.198;11.468;2023-11-19T07:25:56;1.20;;;0.90;;
79574;SDS011;69044;48.198;11.468;2023-11-19T07:28:23;1.70;;;1.08;;
79574;SDS011;69044;48.198;11.468;2023-11-19T07:30:50;1.10;;;0.88;;
79574;SDS011;69044;48.198;11.468;2023-11-19T07:33:18;1.17;;;0.93;;
79574;SDS011;69044;48.198;11.468;2023-11-19T07:35:45;0.93;;;0.77;;
79574;SDS011;69044;48.198;11.468;2023-11-19T07:38:13;2.00;;;0.70;;
79574;SDS011;69044;48.198;11.468;2023-11-19T07:40:40;1.17;;;0.80;;
79574;SDS011;69044;48.198;11.468;2023-11-19T07:43:07;1.40;;;1.00;;
79574;SDS011;69044;48.198;11.468;2023-11-19T07:45:35;1.48;;;1.00;;
79574;SDS011;69044;48.198;11.468;2023-11-19T07:48:02;0.80;;;0.70;;
79574;SDS011;69044;48.198;11.468;2023-11-19T07:50:29;1.77;;;1.02;;
79574;SDS011;69044;48.198;11.468;2023-11-19T07:52:57;0.88;;;0.80;;
79574;SDS011;69044;48.198;11.468;2023-11-19T07:55:26;0.90;;;0.80;;
79574;SDS011;69044;48.198;11.468;2023-11-19T07:57:53;0.90;;;0.63;;
79574;SDS011;69044;48.198;11.468;2023-11-19T08:00:21;0.82;;;0.80;;
79574;SDS011;69044;48.198;11.468;2023-11-19T08:02:48;1.17;;;0.65;;
79574;SDS011;69044;48.198;11.468;2023-11-19T08:05:15;1.02;;;0.73;;
79574;SDS011;69044;48.198;11.468;2023-11-19T08:07:42;1.00;;;0.88;;
79574;SDS011;69044;48.198;11.468;2023-11-19T08:10:09;1.20;;;0.90;;
79574;SDS011;69044;48.198;11.468;2023-11-19T08:12:38;2.03;;;1.20;;
79574;SDS011;69044;48.198;11.468;2023-11-19T08:17:32;1.02;;;0.93;;
79574;SDS011;69044;48.198;11.468;2023-11-19T08:19:59;1.10;;;0.88;;
79574;SDS011;69044;48.198;11.468;2023-11-19T08:22:27;1.08;;;0.85;;
79574;SDS011;69044;48.198;11.468;2023-11-19T08:24:54;1.50;;;1.10;;
79574;SDS011;69044;48.198;11.468;2023-11-19T08:27:21;1.20;;;0.90;;
79574;SDS011;69044;48.198;11.468;2023-11-19T08:29:54;1.00;;;0.80;;
79574;SDS011;69044;48.198;11.468;2023-11-19T08:32:22;0.93;;;0.90;;
79574;SDS011;69044;48.198;11.468;2023-11-19T08:34:49;0.88;;;0.80;;
79574;SDS011;69044;48.198;11.468;2023-11-19T08:37:16;1.45;;;1.00;;
79574;SDS011;69044;48.198;11.468;2023-11-19T08:39:46;1.65;;;1.05;;
79574;SDS011;69044;48.198;11.468;2023-11-19T08:42:13;1.45;;;1.10;;
79574;SDS011;69044;48.198;11.468;2023-11-19T08:44:41;1.63;;;0.95;;
79574;SDS011;69044;48.198;11.468;2023-11-19T08:47:11;2.30;;;1.30;;
79574;SDS011;69044;48.198;11.468;2023-11-19T08:49:38;1.40;;;0.90;;
79574;SDS011;69044;48.198;11.468;2023-11-19T08:52:05;1.88;;;1.13;;
79574;SDS011;69044;48.198;11.468;2023-11-19T08:54:33;1.35;;;1.00;;
79574;SDS011;69044;48.198;11.468;2023-11-19T08:57:00;1.13;;;0.90;;
79574;SDS011;69044;48.198;11.468;2023-11-19T08:59:28;1.35;;;0.88;;
79574;SDS011;69044;48.198;11.468;2023-11-19T09:01:55;0.85;;;0.82;;
79574;SDS011;69044;48.198;11.468;2023-11-19T09:04:24;1.42;;;0.80;;
79574;SDS011;69044;48.198;11.468;2023-11-19T09:06:51;1.38;;;0.93;;
79574;SDS011;69044;48.198;11.468;2023-11-19T09:09:18;2.92;;;1.00;;
79574;SDS011;69044;48.198;11.468;2023-11-19T09:11:45;1.27;;;0.90;;
79574;SDS011;69044;48.198;11.468;2023-11-19T09:14:12;1.40;;;0.90;;
79574;SDS011;69044;48.198;11.468;2023-11-19T09:16:40;2.42;;;1.08;;
79574;SDS011;69044;48.198;11.468;2023-11-19T09:19:07;1.35;;;1.00;;
79574;SDS011;69044;48.198;11.468;2023-11-19T09:21:35;4.97;;;1.17;;
79574;SDS011;69044;48.198;11.468;2023-11-19T09:24:04;1.77;;;1.02;;
79574;SDS011;69044;48.198;11.468;2023-11-19T09:26:33;1.63;;;1.00;;
79574;SDS011;69044;48.198;11.468;2023-11-19T09:31:28;1.30;;;0.88;;
79574;SDS011;69044;48.198;11.468;2023-11-19T09:33:55;4.18;;;1.38;;
79574;SDS011;69044;48.198;11.468;2023-11-19T09:36:22;1.75;;;1.33;;
79574;SDS011;69044;48.198;11.468;2023-11-19T09:38:51;2.03;;;1.42;;
79574;SDS011;69044;48.198;11.468;2023-11-19T09:41:18;1.42;;;1.00;;
79574;SDS011;69044;48.198;11.468;2023-11-19T09:43:46;1.65;;;1.15;;
79574;SDS011;69044;48.198;11.468;2023-11-19T09:46:14;2.00;;;0.90;;
79574;SDS011;69044;48.198;11.468;2023-11-19T09:48:42;1.10;;;1.00;;
79574;SDS011;69044;48.198;11.468;2023-11-19T09:51:10;1.55;;;1.10;;
79574;SDS011;69044;48.198;11.468;2023-11-19T09:53:37;1.35;;;0.98;;
79574;SDS011;69044;48.198;11.468;2023-11-19T09:56:06;1.50;;;1.08;;
79574;SDS011;69044;48.198;11.468;2023-11-19T09:58:34;2.10;;;0.95;;
79574;SDS011;69044;48.198;11.468;2023-11-19T10:01:02;1.42;;;1.10;;
79574;SDS011;69044;48.198;11.468;2023-11-19T10:03:33;1.65;;;1.10;;
79574;SDS011;69044;48.198;11.468;2023-11-19T10:06:04;1.42;;;1.10;;
79574;SDS011;69044;48.198;11.468;2023-11-19T10:08:33;1.15;;;1.00;;
79574;SDS011;69044;48.198;11.468;2023-11-19T10:11:00;1.10;;;0.90;;
79574;SDS011;69044;48.198;11.468;2023-11-19T10:13:29;1.05;;;0.90;;
79574;SDS011;69044;48.198;11.468;2023-11-19T10:15:56;1.80;;;1.02;;
79574;SDS011;69044;48.198;11.468;2023-11-19T10:18:24;1.50;;;0.98;;
79574;SDS011;69044;48.198;11.468;2023-11-19T10:20:52;1.13;;;0.98;;
79574;SDS011;69044;48.198;11.468;2023-11-19T10:23:20;1.27;;;1.10;;
79574;SDS011;69044;48.198;11.468;2023-11-19T10:25:47;1.85;;;1.05;;
79574;SDS011;69044;48.198;11.468;2023-11-19T10:28:15;1.42;;;1.10;;
79574;SDS011;69044;48.198;11.468;2023-11-19T10:30:44;1.13;;;0.88;;
79574;SDS011;69044;48.198;11.468;2023-11-19T10:33:15;2.25;;;1.10;;
79574;SDS011;69044;48.198;11.468;2023-11-19T10:35:52;1.20;;;1.00;;
79574;SDS011;69044;48.198;11.468;2023-11-19T10:38:20;1.60;;;1.00;;
79574;SDS011;69044;48.198;11.468;2023-11-19T10:40:48;1.38;;;0.95;;
79574;SDS011;69044;48.198;11.468;2023-11-19T10:45:44;3.08;;;1.00;;
79574;SDS011;69044;48.198;11.468;2023-11-19T10:48:11;0.75;;;0.70;;
79574;SDS011;69044;48.198;11.468;2023-11-19T10:50:39;1.35;;;1.00;;
79574;SDS011;69044;48.198;11.468;2023-11-19T10:53:08;0.90;;;0.90;;
79574;SDS011;69044;48.198;11.468;2023-11-19T10:55:36;1.30;;;0.90;;
79574;SDS011;69044;48.198;11.468;2023-11-19T10:58:05;1.52;;;1.05;;
79574;SDS011;69044;48.198;11.468;2023-11-19T11:00:34;2.83;;;1.10;;
79574;SDS011;69044;48.198;11.468;2023-11-19T11:03:08;1.27;;;0.93;;
79574;SDS011;69044;48.198;11.468;2023-11-19T11:05:37;1.45;;;0.90;;
79574;SDS011;69044;48.198;11.468;2023-11-19T11:08:06;1.70;;;0.80;;
79574;SDS011;69044;48.198;11.468;2023-11-19T11:10:35;1.05;;;0.80;;
79574;SDS011;69044;48.198;11.468;2023-11-19T11:13:06;1.02;;;0.90;;
79574;SDS011;69044;48.198;11.468;2023-11-19T11:15:33;2.22;;;1.00;;
79574;SDS011;69044;48.198;11.468;2023-11-19T11:18:01;2.00;;;1.00;;
79574;SDS011;69044;48.198;11.468;2023-11-19T11:20:31;0.95;;;0.68;;
79574;SDS011;69044;48.198;11.468;2023-11-19T11:23:11;1.23;;;0.90;;
79574;SDS011;69044;48.198;11.468;2023-11-19T11:25:49;1.17;;;0.70;;
79574;SDS011;69044;48.198;11.468;2023-11-19T11:28:26;1.08;;;0.80;;
79574;SDS011;69044;48.198;11.468;2023-11-19T11:31:02;2.10;;;1.20;;
79574;SDS011;69044;48.198;11.468;2023-11-19T11:33:41;1.13;;;0.90;;
79574;SDS011;69044;48.198;11.468;2023-11-19T11:36:21;1.90;;;1.13;;
79574;SDS011;69044;48.198;11.468;2023-11-19T11:38:49;1.77;;;1.10;;
79574;SDS011;69044;48.198;11.468;2023-11-19T11:41:17;1.88;;;1.30;;
79574;SDS011;69044;48.198;11.468;2023-11-19T11:43:46;2.60;;;1.60;;
79574;SDS011;69044;48.198;11.468;2023-11-19T11:49:15;1.95;;;1.20;;
79574;SDS011;69044;48.198;11.468;2023-11-19T11:51:59;1.45;;;1.02;;
79574;SDS011;69044;48.198;11.468;2023-11-19T11:54:28;1.98;;;1.20;;
79574;SDS011;69044;48.198;11.468;2023-11-19T11:57:02;2.17;;;1.35;;
79574;SDS011;69044;48.198;11.468;2023-11-19T12:02:19;1.52;;;1.05;;
79574;SDS011;69044;48.198;11.468;2023-11-19T12:04:48;2.47;;;1.23;;
79574;SDS011;69044;48.198;11.468;2023-11-19T12:07:17;1.33;;;0.93;;
79574;SDS011;69044;48.198;11.468;2023-11-19T12:09:48;2.08;;;1.23;;
79574;SDS011;69044;48.198;11.468;2023-11-19T12:12:20;2.83;;;1.38;;
79574;SDS011;69044;48.198;11.468;2023-11-19T12:15:00;3.25;;;1.60;;
79574;SDS011;69044;48.198;11.468;2023-11-19T12:17:43;2.53;;;1.50;;
79574;SDS011;69044;48.198;11.468;2023-11-19T12:20:15;2.45;;;1.23;;
79574;SDS011;69044;48.198;11.468;2023-11-19T12:22:45;1.73;;;1.10;;
79574;SDS011;69044;48.198;11.468;2023-11-19T12:25:15;3.35;;;1.48;;
79574;SDS011;69044;48.198;11.468;2023-11-19T12:30:10;2.40;;;1.30;;
79574;SDS011;69044;48.198;11.468;2023-11-19T12:32:39;2.50;;;1.45;;
79574;SDS011;69044;48.198;11.468;2023-11-19T12:35:07;1.88;;;1.15;;
79574;SDS011;69044;48.198;11.468;2023-11-19T12:37:40;3.47;;;1.10;;
79574;SDS011;69044;48.198;11.468;2023-11-19T12:40:13;3.08;;;1.67;;
79574;SDS011;69044;48.198;11.468;2023-11-19T12:42:41;2.08;;;1.20;;
79574;SDS011;69044;48.198;11.468;2023-11-19T12:45:08;3.28;;;1.70;;
79574;SDS011;69044;48.198;11.468;2023-11-19T12:47:38;3.28;;;1.52;;
79574;SDS011;69044;48.198;11.468;2023-11-19T12:52:33;2.03;;;1.00;;
79574;SDS011;69044;48.198;11.468;2023-11-19T12:55:01;2.03;;;1.20;;
79574;SDS011;69044;48.198;11.468;2023-11-19T12:57:39;2.90;;;1.45;;
79574;SDS011;69044;48.198;11.468;2023-11-19T13:00:08;1.25;;;0.90;;
79574;SDS011;69044;48.198;11.468;2023-11-19T13:02:46;1.90;;;1.20;;
79574;SDS011;69044;48.198;11.468;2023-11-19T13:05:24;1.67;;;1.02;;
79574;SDS011;69044;48.198;11.468;2023-11-19T13:07:57;2.75;;;1.10;;
79574;SDS011;69044;48.198;11.468;2023-11-19T13:10:25;2.30;;;1.33;;
79574;SDS011;69044;48.198;11.468;2023-11-19T13:13:04;2.15;;;1.38;;
79574;SDS011;69044;48.198;11.468;2023-11-19T13:15:32;1.40;;;1.00;;
79574;SDS011;69044;48.198;11.468;2023-11-19T13:17:59;1.20;;;0.98;;
79574;SDS011;69044;48.198;11.468;2023-11-19T13:20:27;1.52;;;1.10;;
79574;SDS011;69044;48.198;11.468;2023-11-19T13:22:54;1.60;;;1.10;;
79574;SDS011;69044;48.198;11.468;2023-11-19T13:25:22;1.30;;;1.00;;
79574;SDS011;69044;48.198;11.468;2023-11-19T13:27:49;2.05;;;1.10;;
79574;SDS011;69044;48.198;11.468;2023-11-19T13:30:18;0.95;;;0.93;;
79574;SDS011;69044;48.198;11.468;2023-11-19T13:32:45;1.25;;;0.90;;
79574;SDS011;69044;48.198;11.468;2023-11-19T13:35:12;1.67;;;1.17;;
79574;SDS011;69044;48.198;11.468;2023-11-19T13:37:39;2.08;;;1.05;;
79574;SDS011;69044;48.198;11.468;2023-11-19T13:40:07;1.10;;;0.85;;
79574;SDS011;69044;48.198;11.468;2023-11-19T13:45:03;1.00;;;0.80;;
79574;SDS011;69044;48.198;11.468;2023-11-19T13:47:32;1.45;;;1.15;;
79574;SDS011;69044;48.198;11.468;2023-11-19T14:02:13;1.42;;;0.85;;
79574;SDS011;69044;48.198;11.468;2023-11-19T14:04:42;1.92;;;1.10;;
79574;SDS011;69044;48.198;11.468;2023-11-19T14:09:36;1.52;;;0.95;;
79574;SDS011;69044;48.198;11.468;2023-11-19T14:12:03;1.23;;;0.82;;
79574;SDS011;69044;48.198;11.468;2023-11-19T14:14:31;1.85;;;1.00;;
79574;SDS011;69044;48.198;11.468;2023-11-19T14:16:58;2.40;;;1.33;;
79574;SDS011;69044;48.198;11.468;2023-11-19T14:19:25;4.15;;;1.70;;
79574;SDS011;69044;48.198;11.468;2023-11-19T14:21:54;2.47;;;1.13;;
79574;SDS011;69044;48.198;11.468;2023-11-19T14:26:48;2.05;;;1.13;;
79574;SDS011;69044;48.198;11.468;2023-11-19T14:29:17;1.58;;;0.90;;
79574;SDS011;69044;48.198;11.468;2023-11-19T14:31:44;3.85;;;1.52;;
79574;SDS011;69044;48.198;11.468;2023-11-19T14:34:11;1.35;;;0.80;;
79574;SDS011;69044;48.198;11.468;2023-11-19T14:36:38;4.28;;;1.90;;
79574;SDS011;69044;48.198;11.468;2023-11-19T14:39:07;3.58;;;1.65;;
79574;SDS011;69044;48.198;11.468;2023-11-19T14:46:29;3.47;;;1.48;;
79574;SDS011;69044;48.198;11.468;2023-11-19T14:48:56;2.88;;;1.60;;
79574;SDS011;69044;48.198;11.468;2023-11-19T14:51:23;2.05;;;1.20;;
79574;SDS011;69044;48.198;11.468;2023-11-19T14:53:50;2.47;;;1.40;;
79574;SDS011;69044;48.198;11.468;2023-11-19T14:56:19;2.67;;;1.63;;
79574;SDS011;69044;48.198;11.468;2023-11-19T15:03:40;3.13;;;1.77;;
79574;SDS011;69044;48.198;11.468;2023-11-19T15:06:08;2.53;;;1.60;;
79574;SDS011;69044;48.198;11.468;2023-11-19T15:08:35;1.98;;;1.30;;
79574;SDS011;69044;48.198;11.468;2023-11-19T15:11:02;2.75;;;1.70;;
79574;SDS011;69044;48.198;11.468;2023-11-19T15:13:32;3.28;;;1.90;;
79574;SDS011;69044;48.198;11.468;2023-11-19T15:16:02;2.60;;;1.38;;
79574;SDS011;69044;48.198;11.468;2023-11-19T15:18:31;3.40;;;1.40;;
79574;SDS011;69044;48.198;11.468;2023-11-19T15:20:58;2.30;;;1.40;;
79574;SDS011;69044;48.198;11.468;2023-11-19T15:23:25;2.47;;;1.52;;
79574;SDS011;69044;48.198;11.468;2023-11-19T15:25:54;2.55;;;1.50;;
79574;SDS011;69044;48.198;11.468;2023-11-19T15:28:22;2.63;;;1.60;;
79574;SDS011;69044;48.198;11.468;2023-11-19T15:30:50;2.13;;;1.45;;
79574;SDS011;69044;48.198;11.468;2023-11-19T15:33:18;1.48;;;1.13;;